createdAt,value
2023-02-01T00:00:14.681Z,99221.41
2023-02-01T00:02:42.568Z,99218.78
2023-02-01T00:05:11.287Z,99222.09
2023-02-01T00:07:39.911Z,99216.16
2023-02-01T00:10:09.581Z,99218.53
2023-02-01T00:12:38.988Z,99217.63
2023-02-01T00:15:07.766Z,99214.94
2023-02-01T00:17:35.606Z,99220.84
2023-02-01T00:20:04.185Z,99215.78
2023-02-01T00:22:32.114Z,99218.34
2023-02-01T00:25:00.095Z,99215.59
2023-02-01T00:27:27.967Z,99221.34
2023-02-01T00:29:57.904Z,99216.88
2023-02-01T00:32:25.574Z,99227.97
2023-02-01T00:34:53.498Z,99218.53
2023-02-01T00:37:21.309Z,99215.75
2023-02-01T00:39:49.250Z,99212.16
2023-02-01T00:42:17.184Z,99208.53
2023-02-01T00:44:45.036Z,99213.59
2023-02-01T00:47:14.246Z,99205.97
2023-02-01T00:49:42.191Z,99212.09
2023-02-01T00:52:10.122Z,99203.56
2023-02-01T00:54:38.801Z,99209.28
2023-02-01T00:57:06.607Z,99209.09
2023-02-01T00:59:34.513Z,99201.34
2023-02-01T01:02:02.441Z,99207.94
2023-02-01T01:04:31.818Z,99210.97
2023-02-01T01:06:59.677Z,99207.38
2023-02-01T01:09:27.600Z,99206.44
2023-02-01T01:11:55.395Z,99208.94
2023-02-01T01:14:23.257Z,99205.31
2023-02-01T01:16:52.035Z,99205.13
2023-02-01T01:19:19.953Z,99207.75
2023-02-01T01:21:49.344Z,99201.59
2023-02-01T01:24:17.299Z,99207.47
2023-02-01T01:26:45.193Z,99204.72
2023-02-01T01:29:13.055Z,99192.69
2023-02-01T01:31:40.930Z,99193.44
2023-02-01T01:34:08.873Z,99197.75
2023-02-01T01:36:36.809Z,99196.19
2023-02-01T01:39:06.111Z,99191.91
2023-02-01T01:41:34.768Z,99188.31
2023-02-01T01:44:05.175Z,99185.69
2023-02-01T01:46:36.538Z,99181.53
2023-02-01T01:49:10.100Z,99183.19
2023-02-01T01:51:41.118Z,99181.25
2023-02-01T01:54:18.157Z,99182.97
2023-02-01T01:56:51.302Z,99182.09
2023-02-01T01:59:19.689Z,99178.47
2023-02-01T02:01:48.423Z,99190.44
2023-02-01T02:04:16.445Z,99193.00
2023-02-01T02:06:49.605Z,99189.56
2023-02-01T02:09:19.059Z,99191.16
2023-02-01T02:11:46.910Z,99189.56
2023-02-01T02:14:17.681Z,99192.94
2023-02-01T02:17:03.739Z,99203.41
2023-02-01T02:22:14.510Z,99209.78
2023-02-01T02:25:20.261Z,99221.66
2023-02-01T02:28:02.491Z,99206.94
2023-02-01T02:31:01.350Z,99207.63
2023-02-01T02:34:00.292Z,99221.97
2023-02-01T02:36:45.808Z,99228.59
2023-02-01T02:39:23.663Z,99220.63
2023-02-01T02:42:17.970Z,99222.13
2023-02-01T02:45:09.626Z,99221.19
2023-02-01T02:47:47.578Z,99215.00
2023-02-01T02:50:54.718Z,99211.53
2023-02-01T02:53:45.731Z,99208.25
2023-02-01T02:56:32.301Z,99203.19
2023-02-01T02:59:18.492Z,99215.72
2023-02-01T03:02:03.852Z,99220.63
2023-02-01T03:06:44.397Z,99213.09
2023-02-01T03:09:18.617Z,99215.78
2023-02-01T03:12:06.971Z,99216.59
2023-02-01T03:14:37.487Z,99223.25
2023-02-01T03:17:10.863Z,99224.78
2023-02-01T03:19:49.462Z,99218.59
2023-02-01T03:22:23.233Z,99217.78
2023-02-01T03:24:55.578Z,99215.44
2023-02-01T03:27:29.261Z,99219.03
2023-02-01T03:30:02.211Z,99224.69
2023-02-01T03:32:30.467Z,99215.09
2023-02-01T03:34:58.754Z,99216.59
2023-02-01T03:37:30.007Z,99211.31
2023-02-01T03:40:03.227Z,99210.41
2023-02-01T03:42:37.641Z,99218.09
2023-02-01T03:45:11.945Z,99207.78
2023-02-01T03:47:44.972Z,99199.50
2023-02-01T03:50:17.708Z,99210.69
2023-02-01T03:52:50.908Z,99209.53
2023-02-01T03:55:21.333Z,99213.66
2023-02-01T03:57:54.903Z,99218.72
2023-02-01T04:00:27.396Z,99215.88
2023-02-01T04:02:55.836Z,99219.03
2023-02-01T04:05:24.748Z,99212.94
2023-02-01T04:07:55.388Z,99209.38
2023-02-01T04:10:27.074Z,99198.16
2023-02-01T04:12:58.382Z,99206.75
2023-02-01T04:15:26.854Z,99209.31
2023-02-01T04:17:54.828Z,99206.75
2023-02-01T04:20:23.073Z,99207.28
2023-02-01T04:22:51.246Z,99206.31
2023-02-01T04:25:20.652Z,99209.56
2023-02-01T04:27:48.673Z,99208.50
2023-02-01T04:30:16.838Z,99210.31
2023-02-01T04:32:44.905Z,99216.41
2023-02-01T04:35:12.817Z,99220.78
2023-02-01T04:37:40.805Z,99222.31
2023-02-01T04:40:10.263Z,99226.53
2023-02-01T04:42:39.576Z,99228.19
2023-02-01T04:45:09.890Z,99232.34
2023-02-01T04:47:37.884Z,99239.00
2023-02-01T04:50:06.838Z,99227.75
2023-02-01T04:52:34.828Z,99242.97
2023-02-01T04:55:03.983Z,99235.97
2023-02-01T04:57:31.815Z,99240.19
2023-02-01T05:00:01.172Z,99240.25
2023-02-01T05:02:29.110Z,99241.84
2023-02-01T05:04:57.064Z,99247.75
2023-02-01T05:07:25.020Z,99251.88
2023-02-01T05:09:52.962Z,99244.78
2023-02-01T05:12:38.446Z,99244.56
2023-02-01T05:15:08.892Z,99241.25
2023-02-01T05:17:36.804Z,99243.81
2023-02-01T05:20:08.550Z,99241.09
2023-02-01T05:22:36.536Z,99242.00
2023-02-01T05:25:05.419Z,99241.16
2023-02-01T05:27:34.671Z,99242.78
2023-02-01T05:30:02.498Z,99247.84
2023-02-01T05:32:31.862Z,99245.91
2023-02-01T05:34:59.885Z,99254.38
2023-02-01T05:37:28.205Z,99250.03
2023-02-01T05:39:56.126Z,99263.44
2023-02-01T05:42:24.049Z,99266.00
2023-02-01T05:44:51.961Z,99261.84
2023-02-01T05:47:21.294Z,99257.50
2023-02-01T05:49:50.662Z,99259.16
2023-02-01T05:52:20.335Z,99261.72
2023-02-01T05:54:48.861Z,99259.16
2023-02-01T05:57:17.394Z,99261.63
2023-02-01T05:59:46.641Z,99261.63
2023-02-01T06:02:14.827Z,99263.28
2023-02-01T06:04:42.842Z,99260.78
2023-02-01T06:07:13.961Z,99257.34
2023-02-01T06:09:45.023Z,99270.91
2023-02-01T06:12:15.784Z,99266.63
2023-02-01T06:14:44.393Z,99271.66
2023-02-01T06:17:12.306Z,99272.38
2023-02-01T06:19:41.571Z,99282.56
2023-02-01T06:22:10.963Z,99276.50
2023-02-01T06:24:39.241Z,99267.72
2023-02-01T06:27:07.843Z,99274.50
2023-02-01T06:29:35.891Z,99274.69
2023-02-01T06:32:04.162Z,99276.50
2023-02-01T06:34:32.248Z,99272.88
2023-02-01T06:37:00.241Z,99274.59
2023-02-01T06:39:29.589Z,99279.66
2023-02-01T06:41:57.447Z,99283.97
2023-02-01T06:44:25.402Z,99285.56
2023-02-01T06:46:53.455Z,99286.53
2023-02-01T06:49:21.348Z,99287.34
2023-02-01T06:51:52.324Z,99297.69
2023-02-01T06:54:20.603Z,99299.38
2023-02-01T06:56:50.038Z,99307.81
2023-02-01T06:59:17.967Z,99305.25
2023-02-01T07:01:45.973Z,99302.59
2023-02-01T07:04:14.488Z,99300.97
2023-02-01T07:06:42.581Z,99309.59
2023-02-01T07:09:10.809Z,99301.88
2023-02-01T07:11:41.976Z,99295.75
2023-02-01T07:14:11.586Z,99299.38
2023-02-01T07:16:39.851Z,99302.69
2023-02-01T07:19:07.787Z,99299.31
2023-02-01T07:21:35.714Z,99306.16
2023-02-01T07:24:03.650Z,99313.81
2023-02-01T07:26:31.733Z,99316.59
2023-02-01T07:28:59.799Z,99312.38
2023-02-01T07:31:30.034Z,99317.44
2023-02-01T07:33:59.239Z,99318.94
2023-02-01T07:36:27.255Z,99313.94
2023-02-01T07:38:56.861Z,99325.94
2023-02-01T07:41:27.596Z,99322.56
2023-02-01T07:43:55.847Z,99326.06
2023-02-01T07:46:23.918Z,99328.69
2023-02-01T07:48:53.184Z,99328.63
2023-02-01T07:51:21.087Z,99325.00
2023-02-01T07:53:48.936Z,99339.31
2023-02-01T07:56:18.963Z,99340.81
2023-02-01T07:58:49.384Z,99347.03
2023-02-01T08:01:25.558Z,99347.78
2023-02-01T08:03:58.039Z,99343.41
2023-02-01T08:06:27.123Z,99344.00
2023-02-01T08:08:56.106Z,99343.84
2023-02-01T08:11:25.134Z,99344.63
2023-02-01T08:13:53.628Z,99337.66
2023-02-01T08:16:23.574Z,99348.53
2023-02-01T08:18:51.851Z,99340.91
2023-02-01T08:21:23.013Z,99352.75
2023-02-01T08:23:51.532Z,99350.19
2023-02-01T08:26:21.766Z,99351.88
2023-02-01T08:28:52.570Z,99350.03
2023-02-01T08:31:22.394Z,99356.84
2023-02-01T08:33:52.806Z,99359.44
2023-02-01T08:36:23.179Z,99363.81
2023-02-01T08:38:51.115Z,99368.25
2023-02-01T08:41:21.150Z,99361.47
2023-02-01T08:43:49.720Z,99364.25
2023-02-01T08:46:18.647Z,99367.59
2023-02-01T08:48:47.856Z,99364.25
2023-02-01T08:51:17.545Z,99358.19
2023-02-01T08:53:47.172Z,99357.16
2023-02-01T08:56:16.976Z,99358.81
2023-02-01T08:58:44.971Z,99360.63
2023-02-01T09:01:15.639Z,99361.47
2023-02-01T09:03:43.752Z,99356.31
2023-02-01T09:06:15.071Z,99358.06
2023-02-01T09:08:43.854Z,99362.44
2023-02-01T09:11:15.579Z,99364.09
2023-02-01T09:13:43.862Z,99364.78
2023-02-01T09:16:11.951Z,99361.38
2023-02-01T09:18:50.348Z,99363.03
2023-02-01T09:21:24.272Z,99369.09
2023-02-01T09:23:53.160Z,99366.44
2023-02-01T09:26:31.558Z,99361.31
2023-02-01T09:29:00.467Z,99364.56
2023-02-01T09:31:28.565Z,99360.78
2023-02-01T09:33:56.635Z,99374.38
2023-02-01T09:36:24.961Z,99375.88
2023-02-01T09:38:55.933Z,99373.97
2023-02-01T09:41:38.861Z,99377.47
2023-02-01T09:44:17.759Z,99372.25
2023-02-01T09:46:45.796Z,99380.56
2023-02-01T09:49:19.958Z,99373.81
2023-02-01T09:51:50.610Z,99378.22
2023-02-01T09:54:20.726Z,99374.81
2023-02-01T09:56:52.032Z,99376.94
2023-02-01T09:59:34.541Z,99381.94
2023-02-01T10:02:05.766Z,99379.09
2023-02-01T10:04:34.634Z,99375.66
2023-02-01T10:07:20.746Z,99375.56
2023-02-01T10:10:00.453Z,99380.47
2023-02-01T10:13:02.163Z,99376.91
2023-02-01T10:15:42.357Z,99379.50
2023-02-01T10:18:26.033Z,99381.97
2023-02-01T10:21:04.432Z,99381.75
2023-02-01T10:23:56.143Z,99382.50
2023-02-01T10:26:25.646Z,99388.47
2023-02-01T10:28:58.314Z,99386.81
2023-02-01T10:31:30.377Z,99392.63
2023-02-01T10:34:00.483Z,99391.72
2023-02-01T10:36:31.449Z,99396.09
2023-02-01T10:39:00.937Z,99397.78
2023-02-01T10:41:33.770Z,99399.50
2023-02-01T10:44:07.734Z,99400.34
2023-02-01T10:46:36.304Z,99407.16
2023-02-01T10:49:07.548Z,99408.88
2023-02-01T10:51:45.753Z,99408.72
2023-02-01T10:54:18.509Z,99414.63
2023-02-01T10:56:47.636Z,99415.38
2023-02-01T10:59:20.088Z,99412.75
2023-02-01T11:01:50.610Z,99418.38
2023-02-01T11:04:21.092Z,99416.56
2023-02-01T11:06:53.082Z,99418.16
2023-02-01T11:09:23.695Z,99411.94
2023-02-01T11:12:24.495Z,99410.88
2023-02-01T11:15:00.935Z,99407.16
2023-02-01T11:17:34.331Z,99419.69
2023-02-01T11:20:03.778Z,99418.78
2023-02-01T11:22:31.891Z,99421.25
2023-02-01T11:25:03.490Z,99429.81
2023-02-01T11:27:31.409Z,99421.25
2023-02-01T11:30:05.020Z,99427.25
2023-02-01T11:32:33.403Z,99428.16
2023-02-01T11:35:04.560Z,99440.28
2023-02-01T11:37:37.861Z,99437.78
2023-02-01T11:40:25.265Z,99442.09
2023-02-01T11:42:58.184Z,99445.34
2023-02-01T11:45:30.287Z,99449.47
2023-02-01T11:48:00.475Z,99451.00
2023-02-01T11:50:35.448Z,99449.84
2023-02-01T11:53:28.031Z,99448.78
2023-02-01T11:56:06.240Z,99453.84
2023-02-01T11:59:09.999Z,99460.59
2023-02-01T12:02:27.618Z,99464.81
2023-02-01T12:05:27.051Z,99465.56
2023-02-01T12:08:19.616Z,99470.56
2023-02-01T12:10:58.163Z,99475.72
2023-02-01T12:13:36.954Z,99472.13
2023-02-01T12:16:18.352Z,99470.38
2023-02-01T12:19:16.690Z,99459.84
2023-02-01T12:21:58.383Z,99468.25
2023-02-01T12:24:55.877Z,99472.47
2023-02-01T12:27:47.910Z,99468.06
2023-02-01T12:30:36.001Z,99464.56
2023-02-01T12:33:17.870Z,99470.31
2023-02-01T12:36:12.185Z,99469.31
2023-02-01T12:38:50.013Z,99476.00
2023-02-01T12:41:45.599Z,99474.38
2023-02-01T12:44:19.723Z,99480.53
2023-02-01T12:46:51.971Z,99473.91
2023-02-01T12:49:26.397Z,99479.78
2023-02-01T12:52:02.909Z,99483.13
2023-02-01T12:54:36.975Z,99487.34
2023-02-01T12:57:09.018Z,99481.38
2023-02-01T12:59:41.082Z,99489.91
2023-02-01T13:02:18.294Z,99493.25
2023-02-01T13:04:59.839Z,99498.47
2023-02-01T13:07:33.435Z,99485.69
2023-02-01T13:10:07.533Z,99493.34
2023-02-01T13:12:39.659Z,99488.25
2023-02-01T13:15:14.712Z,99494.09
2023-02-01T13:17:44.464Z,99493.34
2023-02-01T13:20:22.395Z,99494.00
2023-02-01T13:23:00.492Z,99501.97
2023-02-01T13:25:35.992Z,99502.88
2023-02-01T13:28:08.835Z,99507.13
2023-02-01T13:30:50.009Z,99514.00
2023-02-01T13:33:54.878Z,99513.94
2023-02-01T13:36:38.002Z,99513.84
2023-02-01T13:39:35.163Z,99523.38
2023-02-01T13:42:05.696Z,99525.88
2023-02-01T13:44:36.493Z,99531.13
2023-02-01T13:47:15.432Z,99537.25
2023-02-01T13:49:43.479Z,99542.34
2023-02-01T13:52:27.151Z,99534.69
2023-02-01T13:55:16.616Z,99537.25
2023-02-01T13:57:46.019Z,99542.50
2023-02-01T14:00:27.454Z,99537.41
2023-02-01T14:03:11.164Z,99547.72
2023-02-01T14:06:03.901Z,99549.44
2023-02-01T14:09:08.971Z,99552.78
2023-02-01T14:11:41.881Z,99555.38
2023-02-01T14:14:48.120Z,99555.44
2023-02-01T14:17:38.051Z,99558.03
2023-02-01T14:20:44.713Z,99557.19
2023-02-01T14:23:22.372Z,99558.03
2023-02-01T14:26:09.271Z,99569.16
2023-02-01T14:28:44.919Z,99568.31
2023-02-01T14:31:18.851Z,99573.47
2023-02-01T14:33:48.124Z,99578.78
2023-02-01T14:36:17.562Z,99577.13
2023-02-01T14:38:51.917Z,99578.09
2023-02-01T14:41:34.293Z,99585.88
2023-02-01T14:44:27.951Z,99594.69
2023-02-01T14:47:10.160Z,99597.34
2023-02-01T14:49:44.877Z,99603.47
2023-02-01T14:52:18.335Z,99612.13
2023-02-01T14:54:51.515Z,99613.16
2023-02-01T14:57:22.412Z,99607.28
2023-02-01T14:59:55.241Z,99617.56
2023-02-01T15:02:27.994Z,99617.03
2023-02-01T15:04:57.812Z,99620.44
2023-02-01T15:07:28.322Z,99632.63
2023-02-01T15:10:00.200Z,99627.53
2023-02-01T15:12:32.869Z,99629.13
2023-02-01T15:15:15.899Z,99634.28
2023-02-01T15:17:43.780Z,99637.75
2023-02-01T15:20:18.839Z,99634.34
2023-02-01T15:22:55.623Z,99639.50
2023-02-01T15:25:25.639Z,99645.47
2023-02-01T15:27:54.331Z,99648.91
2023-02-01T15:30:26.290Z,99650.69
2023-02-01T15:33:08.578Z,99641.47
2023-02-01T15:35:48.042Z,99652.56
2023-02-01T15:38:36.689Z,99656.16
2023-02-01T15:41:08.674Z,99671.66
2023-02-01T15:43:39.804Z,99666.59
2023-02-01T15:46:13.305Z,99670.97
2023-02-01T15:48:50.620Z,99672.72
2023-02-01T15:51:21.386Z,99686.53
2023-02-01T15:53:52.608Z,99687.59
2023-02-01T15:56:26.287Z,99687.81
2023-02-01T15:58:57.482Z,99694.69
2023-02-01T16:01:27.049Z,99687.88
2023-02-01T16:04:06.633Z,99699.09
2023-02-01T16:06:35.506Z,99697.41
2023-02-01T16:09:12.559Z,99700.81
2023-02-01T16:11:50.319Z,99701.81
2023-02-01T16:14:18.214Z,99706.09
2023-02-01T16:16:47.568Z,99711.47
2023-02-01T16:19:15.494Z,99708.00
2023-02-01T16:21:43.416Z,99717.44
2023-02-01T16:24:11.477Z,99714.88
2023-02-01T16:26:39.748Z,99730.38
2023-02-01T16:29:08.114Z,99731.28
2023-02-01T16:31:38.008Z,99734.59
2023-02-01T16:34:07.981Z,99733.88
2023-02-01T16:36:36.183Z,99734.69
2023-02-01T16:39:04.674Z,99730.38
2023-02-01T16:41:32.693Z,99738.16
2023-02-01T16:44:00.655Z,99738.22
2023-02-01T16:46:34.444Z,99741.72
2023-02-01T16:49:03.305Z,99740.03
2023-02-01T16:51:34.707Z,99743.66
2023-02-01T16:54:03.546Z,99752.16
2023-02-01T16:56:36.784Z,99751.38
2023-02-01T16:59:05.091Z,99755.53
2023-02-01T17:01:33.059Z,99763.31
2023-02-01T17:04:00.991Z,99764.09
2023-02-01T17:06:30.197Z,99765.88
2023-02-01T17:09:03.655Z,99764.88
2023-02-01T17:11:31.938Z,99774.31
2023-02-01T17:14:11.990Z,99772.66
2023-02-01T17:16:39.677Z,99780.50
2023-02-01T17:19:15.025Z,99777.00
2023-02-01T17:21:47.219Z,99775.28
2023-02-01T17:24:17.134Z,99789.81
2023-02-01T17:26:45.439Z,99793.28
2023-02-01T17:29:13.870Z,99792.44
2023-02-01T17:31:44.061Z,99799.31
2023-02-01T17:34:12.599Z,99802.72
2023-02-01T17:36:40.956Z,99806.16
2023-02-01T17:39:09.398Z,99807.03
2023-02-01T17:41:41.648Z,99814.81
2023-02-01T17:44:11.898Z,99818.44
2023-02-01T17:46:42.797Z,99820.09
2023-02-01T17:49:13.575Z,99822.72
2023-02-01T17:51:42.067Z,99823.50
2023-02-01T17:54:13.604Z,99825.09
2023-02-01T17:56:42.932Z,99827.53
2023-02-01T17:59:11.540Z,99837.81
2023-02-01T18:01:40.886Z,99830.94
2023-02-01T18:04:13.439Z,99836.09
2023-02-01T18:06:41.643Z,99837.00
2023-02-01T18:09:09.660Z,99844.66
2023-02-01T18:11:37.556Z,99850.53
2023-02-01T18:14:06.866Z,99851.44
2023-02-01T18:16:37.143Z,99852.38
2023-02-01T18:19:05.249Z,99848.88
2023-02-01T18:21:35.400Z,99853.09
2023-02-01T18:24:03.134Z,99852.22
2023-02-01T18:26:31.700Z,99857.25
2023-02-01T18:28:59.722Z,99859.75
2023-02-01T18:31:31.649Z,99868.19
2023-02-01T18:34:01.156Z,99877.69
2023-02-01T18:36:30.522Z,99873.47
2023-02-01T18:38:58.480Z,99884.56
2023-02-01T18:41:27.205Z,99886.41
2023-02-01T18:43:55.131Z,99877.88
2023-02-01T18:46:23.212Z,99886.47
2023-02-01T18:48:52.593Z,99889.91
2023-02-01T18:51:23.451Z,99885.72
2023-02-01T18:53:51.708Z,99890.03
2023-02-01T18:56:19.726Z,99893.50
2023-02-01T18:58:47.867Z,99892.72
2023-02-01T19:01:19.618Z,99898.66
2023-02-01T19:03:51.543Z,99895.22
2023-02-01T19:06:26.364Z,99896.06
2023-02-01T19:08:56.132Z,99904.59
2023-02-01T19:11:24.156Z,99909.75
2023-02-01T19:13:52.580Z,99913.22
2023-02-01T19:16:20.479Z,99923.53
2023-02-01T19:18:52.088Z,99914.91
2023-02-01T19:21:20.000Z,99927.75
2023-02-01T19:23:49.313Z,99931.22
2023-02-01T19:26:19.477Z,99937.22
2023-02-01T19:28:48.949Z,99941.53
2023-02-01T19:31:17.829Z,99943.38
2023-02-01T19:33:46.308Z,99958.81
2023-02-01T19:36:14.194Z,99952.84
2023-02-01T19:38:42.126Z,99960.56
2023-02-01T19:41:11.425Z,99959.66
2023-02-01T19:43:39.772Z,99969.09
2023-02-01T19:46:07.705Z,99964.78
2023-02-01T19:48:35.637Z,99974.94
2023-02-01T19:51:04.789Z,99975.06
2023-02-01T19:53:32.776Z,99980.22
2023-02-01T19:56:01.761Z,99988.84
2023-02-01T19:58:31.297Z,99983.91
2023-02-01T20:00:59.733Z,99983.91
2023-02-01T20:03:28.008Z,99987.47
2023-02-01T20:05:57.343Z,99992.53
2023-02-01T20:08:26.191Z,99999.56
2023-02-01T20:10:54.289Z,100008.22
2023-02-01T20:13:22.136Z,100011.81
2023-02-01T20:15:57.253Z,100008.53
2023-02-01T20:18:25.331Z,100011.94
2023-02-01T20:20:57.626Z,100013.84
2023-02-01T20:23:25.598Z,100011.34
2023-02-01T20:25:54.780Z,100021.84
2023-02-01T20:28:22.727Z,100019.50
2023-02-01T20:30:52.132Z,100028.22
2023-02-01T20:33:22.507Z,100026.72
2023-02-01T20:35:50.396Z,100030.97
2023-02-01T20:38:18.347Z,100038.84
2023-02-01T20:40:46.809Z,100041.41
2023-02-01T20:43:14.780Z,100046.72
2023-02-01T20:45:42.917Z,100044.09
2023-02-01T20:48:13.210Z,100054.59
2023-02-01T20:50:41.078Z,100056.53
2023-02-01T20:53:12.678Z,100054.09
2023-02-01T20:55:40.687Z,100061.91
2023-02-01T20:58:08.606Z,100068.75
2023-02-01T21:00:36.801Z,100078.34
2023-02-01T21:03:04.689Z,100079.38
2023-02-01T21:05:40.998Z,100082.84
2023-02-01T21:08:09.970Z,100092.28
2023-02-01T21:10:38.679Z,100091.50
2023-02-01T21:13:07.395Z,100094.94
2023-02-01T21:15:36.209Z,100085.53
2023-02-01T21:18:05.737Z,100087.41
2023-02-01T21:20:35.106Z,100088.22
2023-02-01T21:23:02.955Z,100095.13
2023-02-01T21:25:30.836Z,100101.03
2023-02-01T21:27:58.976Z,100101.78
2023-02-01T21:30:26.859Z,100094.78
2023-02-01T21:32:56.461Z,100094.72
2023-02-01T21:35:24.734Z,100099.00
2023-02-01T21:37:54.220Z,100101.56
2023-02-01T21:40:22.149Z,100102.38
2023-02-01T21:42:50.088Z,100110.03
2023-02-01T21:45:18.737Z,100116.00
2023-02-01T21:47:48.886Z,100120.19
2023-02-01T21:50:19.427Z,100120.19
2023-02-01T21:52:47.655Z,100121.84
2023-02-01T21:55:17.376Z,100134.63
2023-02-01T21:57:46.249Z,100134.63
2023-02-01T22:00:15.400Z,100143.19
2023-02-01T22:02:43.294Z,100138.00
2023-02-01T22:05:11.702Z,100151.69
2023-02-01T22:07:39.579Z,100160.28
2023-02-01T22:10:07.927Z,100159.41
2023-02-01T22:12:37.352Z,100168.88
2023-02-01T22:15:05.790Z,100169.66
2023-02-01T22:17:33.647Z,100169.72
2023-02-01T22:20:01.580Z,100174.00
2023-02-01T22:22:29.467Z,100177.53
2023-02-01T22:24:57.556Z,100176.81
2023-02-01T22:27:27.290Z,100188.78
2023-02-01T22:30:15.675Z,100190.59
2023-02-01T22:32:43.669Z,100196.59
2023-02-01T22:35:11.634Z,100208.56
2023-02-01T22:37:39.551Z,100206.91
2023-02-01T22:40:08.528Z,100215.53
2023-02-01T22:42:36.442Z,100221.47
2023-02-01T22:45:04.726Z,100227.56
2023-02-01T22:47:34.015Z,100228.28
2023-02-01T22:50:02.255Z,100237.69
2023-02-01T22:52:30.777Z,100235.91
2023-02-01T22:54:58.626Z,100235.16
2023-02-01T22:57:26.506Z,100230.88
2023-02-01T22:59:54.463Z,100242.88
2023-02-01T23:02:22.365Z,100236.03
2023-02-01T23:05:51.174Z,100242.88
2023-02-01T23:08:20.457Z,100254.97
2023-02-01T23:10:48.369Z,100254.84
2023-02-01T23:13:16.263Z,100256.63
2023-02-01T23:15:44.083Z,100261.09
2023-02-01T23:18:12.062Z,100270.38
2023-02-01T23:20:41.372Z,100281.47
2023-02-01T23:23:09.203Z,100281.59
2023-02-01T23:25:38.529Z,100271.38
2023-02-01T23:28:07.992Z,100274.00
2023-02-01T23:30:36.206Z,100291.09
2023-02-01T23:33:04.152Z,100284.34
2023-02-01T23:35:32.048Z,100283.50
2023-02-01T23:37:59.915Z,100292.09
2023-02-01T23:40:30.097Z,100293.97
2023-02-01T23:43:13.157Z,100297.44
2023-02-01T23:45:41.064Z,100307.72
2023-02-01T23:48:08.909Z,100316.28
2023-02-01T23:50:36.763Z,100318.09
2023-02-01T23:53:04.680Z,100327.41
2023-02-01T23:55:35.672Z,100331.69
2023-02-01T23:58:07.840Z,100330.16
